Flight Track Log - Related Links

Times and Time Zones

All times are in EDT time to prevent confusion due to time zone crossing. See the AWE1454 flight status page for this flight to view local times or setup timezone preferences in your user account.

Time Position Orientation Groundspeed Altitude Reporting Facility
EDT Latitude Longitude Course Direction KTS MPH feet Rate Location/Type
Fri 01:12:46 PM 33.6333 -84.4500 79° East 147 169 2,300  Level Atlanta TRACON
Fri 01:13:46 PM 33.6167 -84.5000 248° West 195 224 3,700 2,158 Climbing Atlanta TRACON
Fri 01:14:00 PM 33.7104 -84.0190 118° Southeast  Level FlightAware Approximate
Fri 01:14:40 PM 33.6000 -84.5667 253° West 210 242 6,400  Level Atlanta TRACON
Fri 01:15:00 PM 33.6572 -83.8972 118° Southeast  Level FlightAware Approximate
Fri 01:15:40 PM 33.5333 -84.5833 192° South 250 288 9,000  Level Atlanta TRACON
Fri 01:16:00 PM 33.6039 -83.7756 118° Southeast  Level FlightAware Approximate
Fri 01:17:00 PM 33.5455 -83.6576 121° Southeast  Level FlightAware Approximate
Fri 01:17:41 PM 33.4533 -84.4297 122° Southeast 269 310 13,200  Level Atlanta Center
Fri 01:18:00 PM 33.5503 -83.5262 79° East  Level FlightAware Approximate
Fri 01:18:41 PM 33.4558 -84.2978 89° East 322 371 15,600  Level Atlanta Center
Fri 01:19:41 PM 33.4728 -84.1583 82° East 371 427 17,600 1,950 Climbing Atlanta Center
Fri 01:20:41 PM 33.4936 -84.0164 80° East 405 466 19,500 2,250 Climbing Atlanta Center
Fri 01:21:41 PM 33.5144 -83.8819 79° East 426 490 22,100 2,100 Climbing Atlanta Center
Fri 01:22:41 PM 33.5331 -83.7397 81° East 426 490 23,700 1,600 Climbing Atlanta Center
Fri 01:23:41 PM 33.5514 -83.5950 81° East 426 490 25,300 1,350 Climbing Atlanta Center
Fri 01:24:41 PM 33.5694 -83.4481 82° East 437 503 26,400 1,150 Climbing Atlanta Center
Fri 01:25:41 PM 33.5917 -83.2931 80° East 454 522 27,600 1,200 Climbing Atlanta Center
Fri 01:26:41 PM 33.6114 -83.1383 81° East 468 539 28,800 1,350 Climbing Atlanta Center
Fri 01:27:41 PM 33.6311 -82.9783 82° East 479 551 30,300 1,100 Climbing Atlanta Center
Fri 01:28:41 PM 33.6525 -82.8208 81° East 479 551 31,000 350 Climbing Atlanta Center
Fri 01:29:41 PM 33.6700 -82.6833 81° East 473 544 31,000  Level Atlanta Center
Fri 01:30:41 PM 33.6889 -82.5258 82° East 473 544 31,000  Level Atlanta Center
Fri 01:31:41 PM 33.7097 -82.3681 81° East 479 551 31,000  Level Atlanta Center
Fri 01:32:41 PM 33.7222 -82.2106 85° East 486 559 31,000  Level Atlanta Center
Fri 01:34:19 PM 33.7536 -81.9658 81° East 489 563 31,000  Level Jacksonville Center
Fri 01:35:19 PM 33.7753 -81.7781 82° East 483 556 31,000  Level Jacksonville Center
Fri 01:36:19 PM 33.7944 -81.6231 81° East 477 549 31,000  Level Jacksonville Center
Fri 01:37:20 PM 33.8117 -81.4653 82° East 472 543 31,000  Level Jacksonville Center
Fri 01:38:19 PM 33.8328 -81.3150 80° East 472 543 31,000  Level Jacksonville Center
Fri 01:39:19 PM 33.9061 -81.1836 56° Northeast 452 520 31,000  Level Jacksonville Center
Fri 01:40:19 PM 33.9942 -81.0642 48° Northeast 452 520 31,000  Level Jacksonville Center
Fri 01:41:19 PM 34.0697 -80.9547 50° Northeast 462 532 31,000  Level Jacksonville Center
Fri 01:42:19 PM 34.1536 -80.8375 49° Northeast 468 539 31,000  Level Jacksonville Center
Fri 01:43:19 PM 34.2411 -80.7147 49° Northeast 468 539 31,000  Level Jacksonville Center
Fri 01:44:19 PM 34.3225 -80.5969 50° Northeast 463 533 31,000  Level Jacksonville Center
Fri 01:45:19 PM 34.4078 -80.4739 50° Northeast 463 533 31,000  Level Jacksonville Center
Fri 01:46:19 PM 34.4953 -80.3583 47° Northeast 463 533 31,000  Level Jacksonville Center
Fri 01:47:19 PM 34.5889 -80.2469 44° Northeast 463 533 31,000  Level Jacksonville Center
Fri 01:48:19 PM 34.6869 -80.1456 40° Northeast 456 525 31,000  Level Jacksonville Center
Fri 01:49:32 PM 34.8081 -80.0061 43° Northeast 451 519 31,000  Level Washington Center
Fri 01:50:32 PM 34.9061 -79.8947 43° Northeast 463 533 31,000  Level Washington Center
Fri 01:51:32 PM 34.9994 -79.7883 43° Northeast 463 533 31,000  Level Washington Center
Fri 01:52:32 PM 35.0953 -79.6764 44° Northeast 463 533 31,000  Level Washington Center
Fri 01:54:32 PM 35.3119 -79.4939 34° Northeast 463 533 31,000  Level Washington Center
Fri 01:55:32 PM 35.4231 -79.4128 31° Northeast 463 533 31,000  Level Washington Center
Fri 01:56:32 PM 35.5278 -79.3386 30° Northeast 479 551 31,000  Level Washington Center
Fri 01:57:32 PM 35.6517 -79.2472 31° Northeast 474 545 31,000  Level Washington Center
Fri 01:58:32 PM 35.7625 -79.1656 31° Northeast 474 545 31,000  Level Washington Center
Fri 01:59:32 PM 35.8778 -79.0836 30° Northeast 474 545 31,000  Level Washington Center
Fri 02:00:32 PM 35.9908 -78.9961 32° Northeast 474 545 31,000  Level Washington Center
Fri 02:01:32 PM 36.1036 -78.9136 31° Northeast 474 545 31,000  Level Washington Center
Fri 02:02:32 PM 36.2167 -78.8281 31° Northeast 474 545 31,000  Level Washington Center
Fri 02:03:32 PM 36.3272 -78.7478 30° Northeast 474 545 31,000  Level Washington Center
Fri 02:04:32 PM 36.4400 -78.6619 31° Northeast 474 545 31,000  Level Washington Center
Fri 02:05:32 PM 36.5528 -78.5783 31° Northeast 474 545 31,000  Level Washington Center
Fri 02:06:32 PM 36.6675 -78.4922 31° Northeast 474 545 31,000  Level Washington Center
Fri 02:07:32 PM 36.7803 -78.4056 32° Northeast 474 545 31,000  Level Washington Center
Fri 02:08:32 PM 36.8886 -78.3211 32° Northeast 474 545 31,000  Level Washington Center
Fri 02:09:32 PM 37.0033 -78.2342 31° Northeast 469 540 31,000  Level Washington Center
Fri 02:10:32 PM 37.1156 -78.1469 32° Northeast 474 545 31,000 -450 Level Washington Center
Fri 02:11:32 PM 37.2281 -78.0619 31° Northeast 474 545 30,100 -500 Descending Washington Center
Fri 02:12:32 PM 37.3425 -77.9742 31° Northeast 474 545 30,000 -50 Descending Washington Center
Fri 02:13:32 PM 37.4569 -77.8836 32° Northeast 474 545 30,000  Level Washington Center
Fri 02:14:32 PM 37.5669 -77.7900 34° Northeast 474 545 30,000  Level Washington Center
Fri 02:15:32 PM 37.6772 -77.6936 35° Northeast 479 551 30,000 -50 Level Washington Center
Fri 02:16:32 PM 37.7853 -77.5967 35° Northeast 479 551 29,900 -600 Descending Washington Center
Fri 02:17:32 PM 37.8847 -77.5044 36° Northeast 461 531 28,800 -1,050 Descending Washington Center
Fri 02:18:32 PM 37.9864 -77.4122 36° Northeast 450 518 27,800 -950 Descending Washington Center
Fri 02:19:32 PM 38.0731 -77.3353 35° Northeast 444 511 26,900 -950 Descending Washington Center
Fri 02:20:32 PM 38.1703 -77.2450 36° Northeast 439 505 25,900 -950 Descending Washington Center
Fri 02:21:32 PM 38.2778 -77.1417 37° Northeast 439 505 25,000 -450 Descending Washington Center
Fri 02:22:32 PM 38.3644 -77.0667 34° Northeast 425 489 25,000  Level Washington Center
Fri 02:23:32 PM 38.4592 -76.9758 37° Northeast 425 489 25,000  Level Washington Center
Fri 02:24:32 PM 38.5561 -76.8872 36° Northeast 425 489 25,000  Level Washington Center
Fri 02:25:32 PM 38.6508 -76.7958 37° Northeast 425 489 25,000  Level Washington Center
Fri 02:26:32 PM 38.7414 -76.6989 40° Northeast 425 489 25,000 -400 Level Washington Center
Fri 02:27:32 PM 38.7175 -76.5733 104° East 328 377 24,200 -500 Descending Washington Center
Fri 02:28:32 PM 38.6258 -76.5722 179° South 203 234 24,000 -100 Descending Washington Center
Fri 02:29:32 PM 38.5606 -76.6458 221° Southwest 204 235 24,000  Level Washington Center
Fri 02:30:32 PM 38.5014 -76.7244 226° Southwest 255 293 24,000  Level Washington Center
Fri 02:31:32 PM 38.5067 -76.8333 274° West 272 313 24,000  Level Washington Center
Fri 02:32:32 PM 38.6044 -76.8642 346° North 241 277 24,000 -100 Level Washington Center
Fri 02:33:32 PM 38.6908 -76.7619 43° Northeast 239 275 23,800 -550 Descending Washington Center
Fri 02:34:32 PM 38.7461 -76.6350 61° Northeast 330 380 22,900 -900 Descending Washington Center
Fri 02:35:32 PM 38.7578 -76.4914 84° East 347 399 22,000 -1,300 Descending Washington Center
Fri 02:36:32 PM 38.7858 -76.3561 75° East 370 426 20,300 -1,850 Descending Washington Center
Fri 02:37:32 PM 38.8094 -76.2203 77° East 385 443 18,300 -2,300 Descending Washington Center
Fri 02:38:32 PM 38.8436 -76.0794 73° East 379 436 15,700 -1,700 Descending Washington Center
Fri 02:39:32 PM 38.8711 -75.9542 74° East 367 422 14,900 -350 Descending Washington Center
Fri 02:40:32 PM 38.9047 -75.8344 70° East 361 415 15,000  Climbing Washington Center
Fri 02:41:32 PM 38.9842 -75.7519 39° Northeast 352 405 14,900 -650 Descending Washington Center
Fri 02:42:32 PM 39.0717 -75.6825 32° Northeast 352 405 13,700 -950 Descending Washington Center
Fri 02:43:32 PM 39.1675 -75.6667 North 334 384 13,000 -350 Descending Washington Center
Fri 02:44:32 PM 39.2633 -75.6558 North 329 379 13,000  Level Washington Center
Fri 02:45:32 PM 39.3447 -75.6022 27° Northeast 327 376 13,000  Level Washington Center
Fri 02:46:32 PM 39.4156 -75.5486 30° Northeast 311 358 13,000 -150 Level Washington Center
Fri 02:47:32 PM 39.4614 -75.5969 321° Northwest 241 277 12,700 -950 Descending Washington Center
Fri 02:48:32 PM 39.4281 -75.6561 234° Southwest 113 130 11,100 -850 Descending Washington Center
Fri 02:49:32 PM 39.3781 -75.7017 215° Southwest 132 152 11,000 -78 Descending Washington Center
Fri 02:49:49 PM 39.3611 -75.7083 197° South 224 258 11,000 -162 Level FAA TRACON SMA TRACON (SMA)
Fri 02:50:09 PM 39.3414 -75.7014 165° South 231 266 10,900 -150 Descending FAA TRACON SMA TRACON (SMA)
Fri 02:50:29 PM 39.3258 -75.6806 134° Southeast 254 292 10,900 150 Level FAA TRACON SMA TRACON (SMA)
Fri 02:50:49 PM 39.3219 -75.6425 98° East 288 331 11,000 140 Climbing FAA TRACON SMA TRACON (SMA)
Fri 02:51:12 PM 39.3333 -75.6161 61° Northeast 297 342 11,000  Level FAA TRACON SMA TRACON (SMA)
Fri 02:51:31 PM 39.3592 -75.5928 35° Northeast 287 330 11,000  Level FAA TRACON SMA TRACON (SMA)
Fri 02:51:48 PM 39.3783 -75.5731 38° Northeast 285 328 11,000 -158 Level FAA TRACON SMA TRACON (SMA)
Fri 02:52:09 PM 39.3978 -75.5542 37° Northeast 283 326 10,900 -689 Descending FAA TRACON SMA TRACON (SMA)
Fri 02:52:49 PM 39.4419 -75.5589 355° North 224 258 10,300 -900 Descending FAA TRACON SMA TRACON (SMA)
Fri 02:53:09 PM 39.4517 -75.5803 300° West 204 235 10,000 -600 Descending FAA TRACON SMA TRACON (SMA)
Fri 02:53:29 PM 39.4514 -75.6033 269° West 194 223 9,900 -154 Descending FAA TRACON SMA TRACON (SMA)
Fri 02:53:48 PM 39.4408 -75.6272 240° Southwest 204 235 9,900  Level FAA TRACON SMA TRACON (SMA)
Fri 02:54:09 PM 39.4272 -75.6417 219° Southwest 207 238 9,900  Level FAA TRACON SMA TRACON (SMA)
Fri 02:54:28 PM 39.4131 -75.6553 217° Southwest 206 237 9,900  Level FAA TRACON SMA TRACON (SMA)
Fri 02:54:48 PM 39.3953 -75.6717 215° Southwest 207 238 9,900  Level FAA TRACON SMA TRACON (SMA)
Fri 02:55:10 PM 39.3808 -75.6861 218° Southwest 206 237 9,900  Level FAA TRACON SMA TRACON (SMA)
Fri 02:55:29 PM 39.3650 -75.6964 207° Southwest 217 250 9,900 154 Level FAA TRACON SMA TRACON (SMA)
Fri 02:55:49 PM 39.3408 -75.6919 172° South 236 272 10,000  Climbing FAA TRACON SMA TRACON (SMA)
Fri 02:56:09 PM 39.3253 -75.6719 135° Southeast 250 288 9,900 -150 Descending FAA TRACON SMA TRACON (SMA)
Fri 02:56:29 PM 39.3222 -75.6422 98° East 299 344 9,900  Level FAA TRACON SMA TRACON (SMA)
Fri 02:56:49 PM 39.3392 -75.6089 57° Northeast 297 342 9,900  Level FAA TRACON SMA TRACON (SMA)
Fri 02:57:09 PM 39.3597 -75.5906 35° Northeast 282 325 9,900  Level FAA TRACON SMA TRACON (SMA)
Fri 02:57:29 PM 39.3797 -75.5717 36° Northeast 287 330 9,900 150 Level FAA TRACON SMA TRACON (SMA)
Fri 02:57:49 PM 39.4053 -75.5506 33° Northeast 287 330 10,000  Climbing FAA TRACON SMA TRACON (SMA)
Fri 02:58:09 PM 39.4264 -75.5506 360° North 250 288 9,900 -150 Descending FAA TRACON SMA TRACON (SMA)
Fri 02:58:29 PM 39.4453 -75.5639 331° Northwest 239 275 9,900 -600 Level FAA TRACON SMA TRACON (SMA)
Fri 02:58:49 PM 39.4675 -75.5819 328° Northwest 241 277 9,500 -1,200 Descending FAA TRACON SMA TRACON (SMA)
Fri 02:59:29 PM 39.5017 -75.6072 330° Northwest 232 267 8,700 -1,300 Descending FAA TRACON SMA TRACON (SMA)
Fri 02:59:49 PM 39.5225 -75.6231 330° Northwest 234 269 8,200 -1,350 Descending FAA TRACON SMA TRACON (SMA)
Fri 03:00:09 PM 39.5331 -75.6408 308° West 227 261 7,800 -1,200 Descending FAA TRACON SMA TRACON (SMA)
Fri 03:00:29 PM 39.5294 -75.6636 258° West 186 214 7,400 -1,200 Descending FAA TRACON SMA TRACON (SMA)
Fri 03:00:49 PM 39.5106 -75.6717 198° South 186 214 7,000 -732 Descending FAA TRACON SMA TRACON (SMA)
Fri 03:01:10 PM 39.4953 -75.6561 142° Southeast 216 249 6,900 -150 Descending FAA TRACON SMA TRACON (SMA)
Fri 03:01:29 PM 39.4900 -75.6278 104° East 270 311 6,900  Level FAA TRACON SMA TRACON (SMA)
Fri 03:01:49 PM 39.4928 -75.5911 84° East 286 329 6,900  Level FAA TRACON SMA TRACON (SMA)

Login

Don't have an account? Register now (free) for customized features, flight alerts, and more!